Thursday, September 3, 2015, 1:09 PM EDT

KSBY, Salisbury-wicomico Cty Reg

Location: Salisbury, MD, United States Lat: 38.333
Local Time: 1:09 PM EDT (17:09 GMT) Lon: -75.5
Time Zone: US/Eastern Elev: 52 ft

Show me the last for .
Show Decoded

2015-09-03 12:54 METAR KSBY 031654Z 33003KT 9SM CLR 32/20 A2988 RMK AO2 SLP120 T03220200 =
2015-09-03 11:54 METAR KSBY 031554Z 03006KT 8SM CLR 32/20 A2989 =
2015-09-03 10:54 METAR KSBY 031454Z 02006KT 8SM CLR 30/22 A2990 RMK AO2 SLP127 T03000217 58002 =
2015-09-03 09:54 METAR KSBY 031354Z 32004KT 7SM CLR 27/22 A2990 RMK AO2 SLP128 T02720217 =
2015-09-03 08:54 METAR KSBY 031254Z 31007KT 6SM BR CLR 24/22 A2991 RMK AO2 SLP130 T02440222 =
2015-09-03 07:54 METAR KSBY 031154Z 30003KT 5SM BR CLR 23/22 A2991 RMK AO2 SLP129 T02280217 10228
                 20206 53007 =
2015-09-03 07:18 METAR KSBY 031118Z 00000KT 3SM BR CLR 21/21 A2990 RMK AO2 T02060206 =
2015-09-03 06:54 METAR KSBY 031054Z 00000KT 3SM BR CLR 21/21 A2989 RMK AO2 SLP124 T02060206 =
2015-09-03 06:51 METAR KSBY 031051Z 00000KT 3SM BR CLR 21/21 A2989 RMK AO2 =
2015-09-03 06:43 METAR KSBY 031043Z 00000KT 2 1/2SM BR CLR 21/21 A2989 RMK AO2 T02060206 =
2015-09-03 05:54 METAR KSBY 030954Z 00000KT 5SM BR CLR 22/21 A2988 RMK AO2 SLP121 T02170211 =
2015-09-03 04:54 METAR KSBY 030854Z AUTO 21005KT 5SM BR CLR 21/21 A2989 RMK AO2 SLP122 T02110206
                 56006 =
2015-09-03 03:54 METAR KSBY 030754Z AUTO 21004KT 5SM BR CLR 22/21 A2989 RMK AO2 SLP124 T02170211
                 =
2015-09-03 02:54 METAR KSBY 030654Z AUTO 27003KT 5SM BR CLR 23/22 A2989 =
2015-09-03 01:54 METAR KSBY 030554Z AUTO 22003KT 5SM BR CLR 23/22 A2990 RMK AO2 SLP127 T02280222
                 10256 20228 58010 =
2015-09-03 00:54 METAR KSBY 030454Z AUTO 24003KT 5SM BR CLR 23/23 A2992 RMK AO2 SLP132 T02330228
                 403280206 =
2015-09-02 23:54 METAR KSBY 030354Z AUTO 21004KT 5SM BR SCT050 BKN065 24/23 A2992 =
2015-09-02 22:54 METAR KSBY 030254Z AUTO 00000KT 5SM BR SCT048 23/23 A2993 RMK AO2 SLP138
                 T02330228 53004 =
2015-09-02 21:54 METAR KSBY 030154Z 00000KT 6SM BR FEW055 24/23 A2992 =
2015-09-02 20:54 METAR KSBY 030054Z 22004KT 7SM FEW060 24/23 A2993 RMK AO2 SLP136 T02440228 =
2015-09-02 19:54 METAR KSBY 022354Z 19006KT 9SM CLR 26/23 A2992 RMK AO2 SLP134 T02560228 10328
                 20256 55007 =
2015-09-02 18:54 METAR KSBY 022254Z 16005KT 10SM CLR 27/23 A2992 =
2015-09-02 17:54 METAR KSBY 022154Z VRB03KT 10SM CLR 31/21 A2992 =
2015-09-02 16:54 METAR KSBY 022054Z 29003KT 10SM CLR 31/19 A2994 RMK AO2 SLP140 T03060194 56015 =
2015-09-02 15:54 METAR KSBY 021954Z 29003KT 10SM CLR 32/20 A2995 RMK AO2 SLP144 T03170200 =
2015-09-02 14:54 METAR KSBY 021854Z 32007KT 10SM CLR 32/20 A2997 RMK AO2 SLP150 T03170200 =
2015-09-02 13:54 METAR KSBY 021754Z 36006KT 10SM CLR 32/20 A2998 RMK AO2 SLP155 T03220200 10328
                 20222 58014 =

Support USWX by starting your Amazon purchase here.